sensor_id;sensor_type;location;lat;lon;timestamp;P1;durP1;ratioP1;P2;durP2;ratioP2
20966;SDS011;10642;50.682;18.510;2023-02-01T00:00:25;5.17;;;3.07;;
20966;SDS011;10642;50.682;18.510;2023-02-01T00:02:52;6.20;;;3.33;;
20966;SDS011;10642;50.682;18.510;2023-02-01T00:05:19;7.00;;;3.40;;
20966;SDS011;10642;50.682;18.510;2023-02-01T00:07:46;7.50;;;3.40;;
20966;SDS011;10642;50.682;18.510;2023-02-01T00:10:14;4.97;;;3.20;;
20966;SDS011;10642;50.682;18.510;2023-02-01T00:12:41;5.03;;;2.87;;
20966;SDS011;10642;50.682;18.510;2023-02-01T00:15:08;4.53;;;2.97;;
20966;SDS011;10642;50.682;18.510;2023-02-01T00:17:35;3.97;;;2.03;;
20966;SDS011;10642;50.682;18.510;2023-02-01T00:20:02;5.87;;;1.97;;
20966;SDS011;10642;50.682;18.510;2023-02-01T00:22:29;4.77;;;1.70;;
20966;SDS011;10642;50.682;18.510;2023-02-01T00:24:56;4.13;;;1.20;;
20966;SDS011;10642;50.682;18.510;2023-02-01T00:27:23;3.77;;;1.13;;
20966;SDS011;10642;50.682;18.510;2023-02-01T00:29:50;4.33;;;1.03;;
20966;SDS011;10642;50.682;18.510;2023-02-01T00:32:16;4.40;;;1.30;;
20966;SDS011;10642;50.682;18.510;2023-02-01T00:34:43;5.90;;;1.53;;
20966;SDS011;10642;50.682;18.510;2023-02-01T00:37:10;2.63;;;1.00;;
20966;SDS011;10642;50.682;18.510;2023-02-01T00:39:37;4.03;;;0.73;;
20966;SDS011;10642;50.682;18.510;2023-02-01T00:42:04;3.20;;;0.80;;
20966;SDS011;10642;50.682;18.510;2023-02-01T00:44:31;3.83;;;1.10;;
20966;SDS011;10642;50.682;18.510;2023-02-01T00:47:01;3.17;;;1.10;;
20966;SDS011;10642;50.682;18.510;2023-02-01T00:49:28;2.33;;;0.97;;
20966;SDS011;10642;50.682;18.510;2023-02-01T00:51:55;3.57;;;1.00;;
20966;SDS011;10642;50.682;18.510;2023-02-01T00:54:22;3.83;;;1.00;;
20966;SDS011;10642;50.682;18.510;2023-02-01T00:56:49;4.13;;;1.17;;
20966;SDS011;10642;50.682;18.510;2023-02-01T00:59:17;4.53;;;1.43;;
20966;SDS011;10642;50.682;18.510;2023-02-01T01:01:44;8.40;;;1.00;;
20966;SDS011;10642;50.682;18.510;2023-02-01T01:04:12;3.70;;;0.87;;
20966;SDS011;10642;50.682;18.510;2023-02-01T01:06:39;4.03;;;0.87;;
20966;SDS011;10642;50.682;18.510;2023-02-01T01:09:06;6.27;;;1.17;;
20966;SDS011;10642;50.682;18.510;2023-02-01T01:11:35;6.87;;;1.00;;
20966;SDS011;10642;50.682;18.510;2023-02-01T01:14:04;7.60;;;1.23;;
20966;SDS011;10642;50.682;18.510;2023-02-01T01:16:31;6.13;;;1.20;;
20966;SDS011;10642;50.682;18.510;2023-02-01T01:18:59;4.67;;;1.07;;
20966;SDS011;10642;50.682;18.510;2023-02-01T01:21:26;5.40;;;1.00;;
20966;SDS011;10642;50.682;18.510;2023-02-01T01:23:54;6.67;;;0.80;;
20966;SDS011;10642;50.682;18.510;2023-02-01T01:26:21;7.70;;;1.07;;
20966;SDS011;10642;50.682;18.510;2023-02-01T01:28:49;9.83;;;1.83;;
20966;SDS011;10642;50.682;18.510;2023-02-01T01:31:19;8.53;;;1.33;;
20966;SDS011;10642;50.682;18.510;2023-02-01T01:33:47;9.23;;;1.30;;
20966;SDS011;10642;50.682;18.510;2023-02-01T01:36:15;10.67;;;1.30;;
20966;SDS011;10642;50.682;18.510;2023-02-01T01:38:42;6.00;;;0.97;;
20966;SDS011;10642;50.682;18.510;2023-02-01T01:41:12;6.77;;;1.80;;
20966;SDS011;10642;50.682;18.510;2023-02-01T01:43:47;5.97;;;1.47;;
20966;SDS011;10642;50.682;18.510;2023-02-01T01:46:19;9.90;;;1.73;;
20966;SDS011;10642;50.682;18.510;2023-02-01T01:48:48;9.70;;;2.00;;
20966;SDS011;10642;50.682;18.510;2023-02-01T01:51:17;5.53;;;1.03;;
20966;SDS011;10642;50.682;18.510;2023-02-01T01:53:51;7.00;;;1.30;;
20966;SDS011;10642;50.682;18.510;2023-02-01T01:56:20;9.43;;;1.80;;
20966;SDS011;10642;50.682;18.510;2023-02-01T01:58:47;9.00;;;2.00;;
20966;SDS011;10642;50.682;18.510;2023-02-01T02:01:13;9.43;;;1.90;;
20966;SDS011;10642;50.682;18.510;2023-02-01T02:03:42;4.70;;;1.60;;
20966;SDS011;10642;50.682;18.510;2023-02-01T02:06:15;12.37;;;2.53;;
20966;SDS011;10642;50.682;18.510;2023-02-01T02:08:44;6.83;;;1.43;;
20966;SDS011;10642;50.682;18.510;2023-02-01T02:11:12;7.07;;;1.40;;
20966;SDS011;10642;50.682;18.510;2023-02-01T02:13:42;9.13;;;2.20;;
20966;SDS011;10642;50.682;18.510;2023-02-01T02:16:20;8.30;;;1.30;;
20966;SDS011;10642;50.682;18.510;2023-02-01T02:26:34;5.93;;;1.60;;
20966;SDS011;10642;50.682;18.510;2023-02-01T02:29:15;7.27;;;1.77;;
20966;SDS011;10642;50.682;18.510;2023-02-01T02:34:34;8.50;;;2.27;;
20966;SDS011;10642;50.682;18.510;2023-02-01T02:42:31;7.13;;;2.03;;
20966;SDS011;10642;50.682;18.510;2023-02-01T02:45:28;8.33;;;2.10;;
20966;SDS011;10642;50.682;18.510;2023-02-01T02:48:20;9.47;;;1.90;;
20966;SDS011;10642;50.682;18.510;2023-02-01T02:50:50;7.00;;;2.07;;
20966;SDS011;10642;50.682;18.510;2023-02-01T02:53:39;6.13;;;1.57;;
20966;SDS011;10642;50.682;18.510;2023-02-01T02:56:28;7.07;;;1.93;;
20966;SDS011;10642;50.682;18.510;2023-02-01T02:59:15;8.93;;;1.47;;
20966;SDS011;10642;50.682;18.510;2023-02-01T03:02:02;5.93;;;1.80;;
20966;SDS011;10642;50.682;18.510;2023-02-01T03:04:52;6.03;;;2.03;;
20966;SDS011;10642;50.682;18.510;2023-02-01T03:10:16;7.50;;;1.57;;
20966;SDS011;10642;50.682;18.510;2023-02-01T03:12:44;7.40;;;1.90;;
20966;SDS011;10642;50.682;18.510;2023-02-01T03:15:30;10.07;;;1.73;;
20966;SDS011;10642;50.682;18.510;2023-02-01T03:17:58;6.33;;;1.33;;
20966;SDS011;10642;50.682;18.510;2023-02-01T03:20:30;8.70;;;1.60;;
20966;SDS011;10642;50.682;18.510;2023-02-01T03:22:58;6.50;;;1.40;;
20966;SDS011;10642;50.682;18.510;2023-02-01T03:25:27;4.90;;;1.50;;
20966;SDS011;10642;50.682;18.510;2023-02-01T03:28:03;7.20;;;1.73;;
20966;SDS011;10642;50.682;18.510;2023-02-01T03:30:34;4.83;;;1.50;;
20966;SDS011;10642;50.682;18.510;2023-02-01T03:33:04;7.90;;;1.60;;
20966;SDS011;10642;50.682;18.510;2023-02-01T03:40:53;5.93;;;2.47;;
20966;SDS011;10642;50.682;18.510;2023-02-01T03:43:22;11.30;;;2.30;;
20966;SDS011;10642;50.682;18.510;2023-02-01T03:45:52;8.67;;;2.30;;
20966;SDS011;10642;50.682;18.510;2023-02-01T03:48:21;7.43;;;2.00;;
20966;SDS011;10642;50.682;18.510;2023-02-01T03:50:49;8.03;;;2.50;;
20966;SDS011;10642;50.682;18.510;2023-02-01T03:53:19;7.93;;;2.23;;
20966;SDS011;10642;50.682;18.510;2023-02-01T03:55:47;7.63;;;2.23;;
20966;SDS011;10642;50.682;18.510;2023-02-01T03:58:16;9.73;;;2.60;;
20966;SDS011;10642;50.682;18.510;2023-02-01T04:00:50;9.60;;;2.33;;
20966;SDS011;10642;50.682;18.510;2023-02-01T04:03:17;7.00;;;2.27;;
20966;SDS011;10642;50.682;18.510;2023-02-01T04:05:45;7.97;;;2.33;;
20966;SDS011;10642;50.682;18.510;2023-02-01T04:08:12;9.53;;;2.80;;
20966;SDS011;10642;50.682;18.510;2023-02-01T04:10:39;10.00;;;2.73;;
20966;SDS011;10642;50.682;18.510;2023-02-01T04:13:07;10.33;;;3.10;;
20966;SDS011;10642;50.682;18.510;2023-02-01T04:15:34;12.23;;;3.27;;
20966;SDS011;10642;50.682;18.510;2023-02-01T04:18:01;9.50;;;2.80;;
20966;SDS011;10642;50.682;18.510;2023-02-01T04:20:28;10.17;;;2.60;;
20966;SDS011;10642;50.682;18.510;2023-02-01T04:22:55;8.77;;;2.17;;
20966;SDS011;10642;50.682;18.510;2023-02-01T04:25:22;9.83;;;2.30;;
20966;SDS011;10642;50.682;18.510;2023-02-01T04:27:49;8.27;;;2.40;;
20966;SDS011;10642;50.682;18.510;2023-02-01T04:30:16;9.13;;;2.47;;
20966;SDS011;10642;50.682;18.510;2023-02-01T04:32:43;8.37;;;2.47;;
20966;SDS011;10642;50.682;18.510;2023-02-01T04:35:10;10.90;;;2.43;;
20966;SDS011;10642;50.682;18.510;2023-02-01T04:37:38;7.67;;;2.20;;
20966;SDS011;10642;50.682;18.510;2023-02-01T04:40:05;10.57;;;1.93;;
20966;SDS011;10642;50.682;18.510;2023-02-01T04:42:32;14.20;;;2.53;;
20966;SDS011;10642;50.682;18.510;2023-02-01T04:44:59;15.83;;;2.67;;
20966;SDS011;10642;50.682;18.510;2023-02-01T04:47:25;8.43;;;2.00;;
20966;SDS011;10642;50.682;18.510;2023-02-01T04:49:52;9.77;;;3.17;;
20966;SDS011;10642;50.682;18.510;2023-02-01T04:52:19;8.87;;;2.80;;
20966;SDS011;10642;50.682;18.510;2023-02-01T04:54:46;13.20;;;2.63;;
20966;SDS011;10642;50.682;18.510;2023-02-01T04:57:13;13.20;;;2.13;;
20966;SDS011;10642;50.682;18.510;2023-02-01T04:59:41;12.33;;;2.30;;
20966;SDS011;10642;50.682;18.510;2023-02-01T05:02:08;9.97;;;2.03;;
20966;SDS011;10642;50.682;18.510;2023-02-01T05:04:35;11.03;;;3.07;;
20966;SDS011;10642;50.682;18.510;2023-02-01T05:07:01;10.53;;;2.40;;
20966;SDS011;10642;50.682;18.510;2023-02-01T05:09:28;12.93;;;2.57;;
20966;SDS011;10642;50.682;18.510;2023-02-01T05:11:55;9.50;;;1.90;;
20966;SDS011;10642;50.682;18.510;2023-02-01T05:14:41;12.33;;;2.27;;
20966;SDS011;10642;50.682;18.510;2023-02-01T05:17:08;7.93;;;2.30;;
20966;SDS011;10642;50.682;18.510;2023-02-01T05:19:35;16.20;;;2.30;;
20966;SDS011;10642;50.682;18.510;2023-02-01T05:22:01;17.50;;;3.00;;
20966;SDS011;10642;50.682;18.510;2023-02-01T05:24:28;15.80;;;3.43;;
20966;SDS011;10642;50.682;18.510;2023-02-01T05:26:55;15.90;;;3.50;;
20966;SDS011;10642;50.682;18.510;2023-02-01T05:29:22;12.90;;;3.00;;
20966;SDS011;10642;50.682;18.510;2023-02-01T05:31:49;15.07;;;3.27;;
20966;SDS011;10642;50.682;18.510;2023-02-01T05:34:16;13.60;;;2.63;;
20966;SDS011;10642;50.682;18.510;2023-02-01T05:36:43;17.83;;;4.60;;
20966;SDS011;10642;50.682;18.510;2023-02-01T05:39:09;10.90;;;3.17;;
20966;SDS011;10642;50.682;18.510;2023-02-01T05:41:36;11.43;;;3.00;;
20966;SDS011;10642;50.682;18.510;2023-02-01T05:44:03;16.93;;;3.40;;
20966;SDS011;10642;50.682;18.510;2023-02-01T05:46:31;12.70;;;2.57;;
20966;SDS011;10642;50.682;18.510;2023-02-01T05:48:59;14.33;;;3.33;;
20966;SDS011;10642;50.682;18.510;2023-02-01T05:51:25;11.23;;;3.70;;
20966;SDS011;10642;50.682;18.510;2023-02-01T05:53:52;13.63;;;4.00;;
20966;SDS011;10642;50.682;18.510;2023-02-01T05:56:19;15.20;;;4.30;;
20966;SDS011;10642;50.682;18.510;2023-02-01T05:58:46;14.50;;;4.03;;
20966;SDS011;10642;50.682;18.510;2023-02-01T06:01:13;19.37;;;3.73;;
20966;SDS011;10642;50.682;18.510;2023-02-01T06:03:40;14.83;;;5.00;;
20966;SDS011;10642;50.682;18.510;2023-02-01T06:06:07;59.07;;;31.63;;
20966;SDS011;10642;50.682;18.510;2023-02-01T06:08:34;91.23;;;53.13;;
20966;SDS011;10642;50.682;18.510;2023-02-01T06:11:02;47.40;;;25.07;;
20966;SDS011;10642;50.682;18.510;2023-02-01T06:13:29;26.93;;;12.47;;
20966;SDS011;10642;50.682;18.510;2023-02-01T06:15:59;49.90;;;30.63;;
20966;SDS011;10642;50.682;18.510;2023-02-01T06:18:26;26.93;;;11.50;;
20966;SDS011;10642;50.682;18.510;2023-02-01T06:20:54;27.47;;;13.43;;
20966;SDS011;10642;50.682;18.510;2023-02-01T06:23:21;18.40;;;7.93;;
20966;SDS011;10642;50.682;18.510;2023-02-01T06:25:57;18.70;;;8.03;;
20966;SDS011;10642;50.682;18.510;2023-02-01T06:28:26;21.50;;;8.37;;
20966;SDS011;10642;50.682;18.510;2023-02-01T06:30:53;26.07;;;12.07;;
20966;SDS011;10642;50.682;18.510;2023-02-01T06:33:20;21.13;;;7.37;;
20966;SDS011;10642;50.682;18.510;2023-02-01T06:35:47;25.03;;;7.30;;
20966;SDS011;10642;50.682;18.510;2023-02-01T06:38:14;13.97;;;4.70;;
20966;SDS011;10642;50.682;18.510;2023-02-01T06:40:41;11.43;;;5.03;;
20966;SDS011;10642;50.682;18.510;2023-02-01T06:43:08;12.93;;;4.90;;
20966;SDS011;10642;50.682;18.510;2023-02-01T06:45:35;16.33;;;3.87;;
20966;SDS011;10642;50.682;18.510;2023-02-01T06:48:02;14.57;;;4.33;;
20966;SDS011;10642;50.682;18.510;2023-02-01T06:50:30;12.90;;;3.70;;
20966;SDS011;10642;50.682;18.510;2023-02-01T06:52:56;15.43;;;3.70;;
20966;SDS011;10642;50.682;18.510;2023-02-01T06:55:23;16.77;;;5.70;;
20966;SDS011;10642;50.682;18.510;2023-02-01T06:57:52;16.60;;;3.57;;
20966;SDS011;10642;50.682;18.510;2023-02-01T07:00:19;17.33;;;6.70;;
20966;SDS011;10642;50.682;18.510;2023-02-01T07:02:47;17.37;;;6.77;;
20966;SDS011;10642;50.682;18.510;2023-02-01T07:05:14;15.63;;;6.00;;
20966;SDS011;10642;50.682;18.510;2023-02-01T07:07:41;15.73;;;4.87;;
20966;SDS011;10642;50.682;18.510;2023-02-01T07:10:09;11.73;;;3.63;;
20966;SDS011;10642;50.682;18.510;2023-02-01T07:12:36;19.93;;;3.60;;
20966;SDS011;10642;50.682;18.510;2023-02-01T07:15:03;13.23;;;5.33;;
20966;SDS011;10642;50.682;18.510;2023-02-01T07:17:30;52.13;;;25.60;;
20966;SDS011;10642;50.682;18.510;2023-02-01T07:19:56;24.57;;;11.27;;
20966;SDS011;10642;50.682;18.510;2023-02-01T07:22:26;19.97;;;9.70;;
20966;SDS011;10642;50.682;18.510;2023-02-01T07:24:53;18.00;;;6.87;;
20966;SDS011;10642;50.682;18.510;2023-02-01T07:27:19;18.57;;;7.03;;
20966;SDS011;10642;50.682;18.510;2023-02-01T07:29:46;18.13;;;5.07;;
20966;SDS011;10642;50.682;18.510;2023-02-01T07:32:13;12.07;;;5.10;;
20966;SDS011;10642;50.682;18.510;2023-02-01T07:34:40;18.27;;;6.10;;
20966;SDS011;10642;50.682;18.510;2023-02-01T07:37:07;12.53;;;4.30;;
20966;SDS011;10642;50.682;18.510;2023-02-01T07:39:34;12.57;;;5.07;;
20966;SDS011;10642;50.682;18.510;2023-02-01T07:42:00;13.23;;;3.63;;
20966;SDS011;10642;50.682;18.510;2023-02-01T07:44:28;12.63;;;4.90;;
20966;SDS011;10642;50.682;18.510;2023-02-01T07:46:55;12.57;;;4.70;;
20966;SDS011;10642;50.682;18.510;2023-02-01T07:49:22;13.57;;;4.23;;
20966;SDS011;10642;50.682;18.510;2023-02-01T07:51:49;11.03;;;3.70;;
20966;SDS011;10642;50.682;18.510;2023-02-01T07:54:16;16.27;;;4.87;;
20966;SDS011;10642;50.682;18.510;2023-02-01T07:56:43;18.27;;;6.33;;
20966;SDS011;10642;50.682;18.510;2023-02-01T07:59:09;16.07;;;5.47;;
20966;SDS011;10642;50.682;18.510;2023-02-01T08:01:37;13.37;;;4.43;;
20966;SDS011;10642;50.682;18.510;2023-02-01T08:04:04;14.60;;;5.27;;
20966;SDS011;10642;50.682;18.510;2023-02-01T08:06:32;10.53;;;4.43;;
20966;SDS011;10642;50.682;18.510;2023-02-01T08:08:59;9.97;;;4.30;;
20966;SDS011;10642;50.682;18.510;2023-02-01T08:11:26;14.97;;;4.47;;
20966;SDS011;10642;50.682;18.510;2023-02-01T08:13:53;11.33;;;4.40;;
20966;SDS011;10642;50.682;18.510;2023-02-01T08:16:21;12.00;;;3.93;;
20966;SDS011;10642;50.682;18.510;2023-02-01T08:18:48;11.20;;;3.70;;
20966;SDS011;10642;50.682;18.510;2023-02-01T08:21:18;22.30;;;9.57;;
20966;SDS011;10642;50.682;18.510;2023-02-01T08:23:46;11.73;;;5.20;;
20966;SDS011;10642;50.682;18.510;2023-02-01T08:26:20;13.17;;;4.80;;
20966;SDS011;10642;50.682;18.510;2023-02-01T08:28:48;13.90;;;6.23;;
20966;SDS011;10642;50.682;18.510;2023-02-01T08:31:16;18.67;;;6.40;;
20966;SDS011;10642;50.682;18.510;2023-02-01T08:33:44;15.07;;;5.97;;
20966;SDS011;10642;50.682;18.510;2023-02-01T08:36:14;20.87;;;7.67;;
20966;SDS011;10642;50.682;18.510;2023-02-01T08:38:41;13.37;;;5.23;;
20966;SDS011;10642;50.682;18.510;2023-02-01T08:41:09;19.77;;;7.17;;
20966;SDS011;10642;50.682;18.510;2023-02-01T08:43:36;10.23;;;4.23;;
20966;SDS011;10642;50.682;18.510;2023-02-01T08:46:04;28.50;;;12.37;;
20966;SDS011;10642;50.682;18.510;2023-02-01T08:48:31;16.90;;;5.47;;
20966;SDS011;10642;50.682;18.510;2023-02-01T08:51:01;18.47;;;5.47;;
20966;SDS011;10642;50.682;18.510;2023-02-01T08:53:28;19.03;;;7.20;;
20966;SDS011;10642;50.682;18.510;2023-02-01T08:55:54;21.13;;;8.80;;
20966;SDS011;10642;50.682;18.510;2023-02-01T08:58:21;15.57;;;5.30;;
20966;SDS011;10642;50.682;18.510;2023-02-01T09:00:48;18.63;;;6.60;;
20966;SDS011;10642;50.682;18.510;2023-02-01T09:03:16;16.57;;;6.13;;
20966;SDS011;10642;50.682;18.510;2023-02-01T09:05:43;17.40;;;7.00;;
20966;SDS011;10642;50.682;18.510;2023-02-01T09:08:15;16.30;;;6.10;;
20966;SDS011;10642;50.682;18.510;2023-02-01T09:10:42;12.77;;;5.77;;
20966;SDS011;10642;50.682;18.510;2023-02-01T09:13:09;17.97;;;7.57;;
20966;SDS011;10642;50.682;18.510;2023-02-01T09:15:36;33.80;;;10.23;;
20966;SDS011;10642;50.682;18.510;2023-02-01T09:18:03;10.63;;;4.70;;
20966;SDS011;10642;50.682;18.510;2023-02-01T09:20:30;14.80;;;6.30;;
20966;SDS011;10642;50.682;18.510;2023-02-01T09:22:57;20.87;;;7.53;;
20966;SDS011;10642;50.682;18.510;2023-02-01T09:25:24;58.50;;;21.77;;
20966;SDS011;10642;50.682;18.510;2023-02-01T09:27:51;27.83;;;9.60;;
20966;SDS011;10642;50.682;18.510;2023-02-01T09:30:18;26.27;;;8.63;;
20966;SDS011;10642;50.682;18.510;2023-02-01T09:32:45;43.20;;;13.53;;
20966;SDS011;10642;50.682;18.510;2023-02-01T09:35:12;30.40;;;13.33;;
20966;SDS011;10642;50.682;18.510;2023-02-01T09:37:38;19.73;;;9.63;;
20966;SDS011;10642;50.682;18.510;2023-02-01T09:40:05;21.40;;;8.20;;
20966;SDS011;10642;50.682;18.510;2023-02-01T09:47:54;18.77;;;6.53;;
20966;SDS011;10642;50.682;18.510;2023-02-01T09:50:28;14.43;;;7.00;;
20966;SDS011;10642;50.682;18.510;2023-02-01T09:52:58;14.30;;;5.87;;
20966;SDS011;10642;50.682;18.510;2023-02-01T09:57:55;12.97;;;6.20;;
20966;SDS011;10642;50.682;18.510;2023-02-01T10:00:28;20.07;;;7.10;;
20966;SDS011;10642;50.682;18.510;2023-02-01T10:02:56;16.00;;;5.10;;
20966;SDS011;10642;50.682;18.510;2023-02-01T10:05:30;18.77;;;8.20;;
20966;SDS011;10642;50.682;18.510;2023-02-01T10:08:03;11.67;;;5.43;;
20966;SDS011;10642;50.682;18.510;2023-02-01T10:10:35;14.30;;;5.60;;
20966;SDS011;10642;50.682;18.510;2023-02-01T10:18:34;12.67;;;4.87;;
20966;SDS011;10642;50.682;18.510;2023-02-01T10:23:42;12.60;;;5.90;;
20966;SDS011;10642;50.682;18.510;2023-02-01T10:26:19;14.33;;;4.53;;
20966;SDS011;10642;50.682;18.510;2023-02-01T10:28:53;13.57;;;3.57;;
20966;SDS011;10642;50.682;18.510;2023-02-01T10:31:24;11.23;;;3.93;;
20966;SDS011;10642;50.682;18.510;2023-02-01T10:33:52;14.00;;;4.90;;
20966;SDS011;10642;50.682;18.510;2023-02-01T10:36:29;9.33;;;3.40;;
20966;SDS011;10642;50.682;18.510;2023-02-01T10:39:00;10.97;;;5.07;;
20966;SDS011;10642;50.682;18.510;2023-02-01T10:41:32;10.67;;;4.50;;
20966;SDS011;10642;50.682;18.510;2023-02-01T10:44:00;13.40;;;4.50;;
20966;SDS011;10642;50.682;18.510;2023-02-01T10:46:30;13.73;;;5.37;;
20966;SDS011;10642;50.682;18.510;2023-02-01T10:48:58;14.93;;;7.20;;
20966;SDS011;10642;50.682;18.510;2023-02-01T10:51:28;9.80;;;4.97;;
20966;SDS011;10642;50.682;18.510;2023-02-01T10:53:58;12.97;;;5.87;;
20966;SDS011;10642;50.682;18.510;2023-02-01T10:56:27;12.20;;;3.87;;
20966;SDS011;10642;50.682;18.510;2023-02-01T10:59:13;9.47;;;3.83;;
20966;SDS011;10642;50.682;18.510;2023-02-01T11:01:41;9.50;;;4.80;;
20966;SDS011;10642;50.682;18.510;2023-02-01T11:04:12;8.17;;;3.50;;
20966;SDS011;10642;50.682;18.510;2023-02-01T11:06:40;9.97;;;3.77;;
20966;SDS011;10642;50.682;18.510;2023-02-01T11:14:17;16.10;;;8.57;;
20966;SDS011;10642;50.682;18.510;2023-02-01T11:16:48;12.67;;;5.67;;
20966;SDS011;10642;50.682;18.510;2023-02-01T11:19:16;9.20;;;4.50;;
20966;SDS011;10642;50.682;18.510;2023-02-01T11:21:43;9.20;;;4.47;;
20966;SDS011;10642;50.682;18.510;2023-02-01T11:24:23;14.47;;;6.53;;
20966;SDS011;10642;50.682;18.510;2023-02-01T11:26:54;9.17;;;4.57;;
20966;SDS011;10642;50.682;18.510;2023-02-01T11:29:21;16.43;;;5.37;;
20966;SDS011;10642;50.682;18.510;2023-02-01T11:31:51;8.63;;;4.33;;
20966;SDS011;10642;50.682;18.510;2023-02-01T11:34:20;10.07;;;3.60;;
20966;SDS011;10642;50.682;18.510;2023-02-01T11:36:48;10.93;;;5.30;;
20966;SDS011;10642;50.682;18.510;2023-02-01T11:39:20;10.50;;;4.43;;
20966;SDS011;10642;50.682;18.510;2023-02-01T11:44:47;18.63;;;8.23;;
20966;SDS011;10642;50.682;18.510;2023-02-01T11:47:27;9.17;;;4.17;;
20966;SDS011;10642;50.682;18.510;2023-02-01T11:49:58;6.60;;;3.10;;
20966;SDS011;10642;50.682;18.510;2023-02-01T11:52:39;9.63;;;4.17;;
20966;SDS011;10642;50.682;18.510;2023-02-01T11:55:20;6.30;;;3.20;;
20966;SDS011;10642;50.682;18.510;2023-02-01T12:20:11;11.73;;;4.63;;
20966;SDS011;10642;50.682;18.510;2023-02-01T12:23:06;10.40;;;5.83;;
20966;SDS011;10642;50.682;18.510;2023-02-01T12:28:13;8.50;;;3.77;;
20966;SDS011;10642;50.682;18.510;2023-02-01T12:33:27;9.13;;;4.30;;
20966;SDS011;10642;50.682;18.510;2023-02-01T12:36:13;12.73;;;6.93;;
20966;SDS011;10642;50.682;18.510;2023-02-01T12:39:31;15.60;;;6.40;;
20966;SDS011;10642;50.682;18.510;2023-02-01T12:44:17;9.53;;;5.90;;
20966;SDS011;10642;50.682;18.510;2023-02-01T12:47:11;12.83;;;5.60;;
20966;SDS011;10642;50.682;18.510;2023-02-01T12:52:16;38.93;;;15.60;;
20966;SDS011;10642;50.682;18.510;2023-02-01T12:55:07;10.50;;;6.00;;
20966;SDS011;10642;50.682;18.510;2023-02-01T12:57:33;16.40;;;10.90;;
20966;SDS011;10642;50.682;18.510;2023-02-01T13:05:00;13.07;;;5.20;;
20966;SDS011;10642;50.682;18.510;2023-02-01T13:08:05;8.70;;;6.23;;
20966;SDS011;10642;50.682;18.510;2023-02-01T13:12:53;11.67;;;7.77;;
20966;SDS011;10642;50.682;18.510;2023-02-01T13:17:47;8.73;;;5.30;;
20966;SDS011;10642;50.682;18.510;2023-02-01T13:20:18;9.23;;;4.60;;
20966;SDS011;10642;50.682;18.510;2023-02-01T13:22:50;10.00;;;5.57;;
20966;SDS011;10642;50.682;18.510;2023-02-01T13:27:55;5.30;;;3.47;;
20966;SDS011;10642;50.682;18.510;2023-02-01T13:30:24;8.07;;;5.33;;
20966;SDS011;10642;50.682;18.510;2023-02-01T13:41:39;4.83;;;2.70;;
20966;SDS011;10642;50.682;18.510;2023-02-01T13:43:46;9.17;;;5.43;;
20966;SDS011;10642;50.682;18.510;2023-02-01T13:46:15;4.67;;;2.87;;
20966;SDS011;10642;50.682;18.510;2023-02-01T13:48:47;5.17;;;2.83;;
20966;SDS011;10642;50.682;18.510;2023-02-01T13:51:16;6.93;;;4.67;;
20966;SDS011;10642;50.682;18.510;2023-02-01T13:53:53;5.60;;;3.30;;
20966;SDS011;10642;50.682;18.510;2023-02-01T13:56:20;4.87;;;2.83;;
20966;SDS011;10642;50.682;18.510;2023-02-01T13:58:49;4.73;;;3.50;;
20966;SDS011;10642;50.682;18.510;2023-02-01T14:03:55;6.97;;;4.87;;
20966;SDS011;10642;50.682;18.510;2023-02-01T14:14:39;8.50;;;5.57;;
20966;SDS011;10642;50.682;18.510;2023-02-01T14:19:28;8.30;;;4.30;;
20966;SDS011;10642;50.682;18.510;2023-02-01T14:21:56;5.83;;;3.97;;
20966;SDS011;10642;50.682;18.510;2023-02-01T14:24:26;9.03;;;5.20;;
20966;SDS011;10642;50.682;18.510;2023-02-01T14:26:53;7.13;;;5.00;;
20966;SDS011;10642;50.682;18.510;2023-02-01T14:29:43;10.97;;;7.70;;
20966;SDS011;10642;50.682;18.510;2023-02-01T14:34:48;7.50;;;5.00;;
20966;SDS011;10642;50.682;18.510;2023-02-01T14:44:53;7.57;;;4.90;;
20966;SDS011;10642;50.682;18.510;2023-02-01T14:47:29;6.13;;;4.63;;
20966;SDS011;10642;50.682;18.510;2023-02-01T14:52:35;6.33;;;4.10;;
20966;SDS011;10642;50.682;18.510;2023-02-01T14:55:05;11.87;;;5.33;;
20966;SDS011;10642;50.682;18.510;2023-02-01T14:57:34;11.10;;;4.90;;
20966;SDS011;10642;50.682;18.510;2023-02-01T15:00:06;9.23;;;4.90;;
20966;SDS011;10642;50.682;18.510;2023-02-01T15:02:33;7.97;;;4.50;;
20966;SDS011;10642;50.682;18.510;2023-02-01T15:05:01;9.23;;;4.60;;
20966;SDS011;10642;50.682;18.510;2023-02-01T15:07:28;8.50;;;5.80;;
20966;SDS011;10642;50.682;18.510;2023-02-01T15:09:56;9.57;;;6.10;;
20966;SDS011;10642;50.682;18.510;2023-02-01T15:12:27;14.10;;;6.27;;
20966;SDS011;10642;50.682;18.510;2023-02-01T15:17:40;12.10;;;7.13;;
20966;SDS011;10642;50.682;18.510;2023-02-01T15:22:38;11.27;;;5.73;;
20966;SDS011;10642;50.682;18.510;2023-02-01T15:25:05;22.13;;;10.60;;
20966;SDS011;10642;50.682;18.510;2023-02-01T15:27:33;16.33;;;6.60;;
20966;SDS011;10642;50.682;18.510;2023-02-01T15:30:06;15.00;;;7.83;;
20966;SDS011;10642;50.682;18.510;2023-02-01T15:32:34;12.67;;;7.87;;
20966;SDS011;10642;50.682;18.510;2023-02-01T15:35:02;14.83;;;7.57;;
20966;SDS011;10642;50.682;18.510;2023-02-01T15:37:29;13.93;;;7.23;;
20966;SDS011;10642;50.682;18.510;2023-02-01T15:42:53;12.93;;;6.00;;
20966;SDS011;10642;50.682;18.510;2023-02-01T15:45:28;10.77;;;5.03;;
20966;SDS011;10642;50.682;18.510;2023-02-01T15:47:56;9.83;;;4.37;;
20966;SDS011;10642;50.682;18.510;2023-02-01T15:50:24;13.07;;;7.00;;
20966;SDS011;10642;50.682;18.510;2023-02-01T15:52:52;13.80;;;7.40;;
20966;SDS011;10642;50.682;18.510;2023-02-01T15:55:35;17.60;;;9.43;;
20966;SDS011;10642;50.682;18.510;2023-02-01T15:58:07;15.90;;;6.17;;
20966;SDS011;10642;50.682;18.510;2023-02-01T16:00:44;10.77;;;5.27;;
20966;SDS011;10642;50.682;18.510;2023-02-01T16:05:55;10.60;;;5.70;;
20966;SDS011;10642;50.682;18.510;2023-02-01T16:08:23;9.47;;;4.57;;
20966;SDS011;10642;50.682;18.510;2023-02-01T16:10:52;10.03;;;4.37;;
20966;SDS011;10642;50.682;18.510;2023-02-01T16:13:20;9.47;;;4.20;;
20966;SDS011;10642;50.682;18.510;2023-02-01T16:15:47;11.17;;;5.03;;
20966;SDS011;10642;50.682;18.510;2023-02-01T16:18:14;16.53;;;6.33;;
20966;SDS011;10642;50.682;18.510;2023-02-01T16:20:44;13.17;;;5.77;;
20966;SDS011;10642;50.682;18.510;2023-02-01T16:23:12;10.30;;;4.20;;
20966;SDS011;10642;50.682;18.510;2023-02-01T16:25:39;11.57;;;4.90;;
20966;SDS011;10642;50.682;18.510;2023-02-01T16:28:07;11.50;;;5.23;;
20966;SDS011;10642;50.682;18.510;2023-02-01T16:30:34;13.83;;;5.70;;
20966;SDS011;10642;50.682;18.510;2023-02-01T16:33:02;13.90;;;7.20;;
20966;SDS011;10642;50.682;18.510;2023-02-01T16:35:32;12.03;;;6.20;;
20966;SDS011;10642;50.682;18.510;2023-02-01T16:38:03;15.30;;;5.30;;
20966;SDS011;10642;50.682;18.510;2023-02-01T16:40:35;12.53;;;4.77;;
20966;SDS011;10642;50.682;18.510;2023-02-01T16:43:02;9.87;;;4.13;;
20966;SDS011;10642;50.682;18.510;2023-02-01T16:45:30;16.03;;;5.53;;
20966;SDS011;10642;50.682;18.510;2023-02-01T16:47:57;13.67;;;5.57;;
20966;SDS011;10642;50.682;18.510;2023-02-01T16:50:24;12.07;;;5.27;;
20966;SDS011;10642;50.682;18.510;2023-02-01T16:52:52;17.13;;;6.93;;
20966;SDS011;10642;50.682;18.510;2023-02-01T16:55:20;17.80;;;7.57;;
20966;SDS011;10642;50.682;18.510;2023-02-01T16:57:49;16.10;;;6.00;;